Kerrville, Texas
Current Conditions -  °F | °C
As of 8:35 PM on Sunday 25 Jan 2015 (Local Time) from KERV Reporting Station
Clear Clear  
Wind Chill: 46°   Ceiling: Unl
Heat Index: 46°   Visibility: 10mi
Dew Point: 35°   Wind: 0mph
Humidity: 64%   Direction: NA
Pressure: 30.23"   Gusts: NA
Location:  30.05°N, 99.14°W
Report Text: KERV 260235Z AUTO 00000KT 10SM CLR 08/01 A3023 RMK AO2 T00780014
Loading
Personal Weather Stations






























Interactive Weather Map New forecast layout! Learn more

10-Day Weather Forecast

Advertisements
Track Severe Weather on mobile